createdAt,value
2019-05-21T00:00:05.345Z,10.6561
2019-05-21T00:00:15.007Z,10.6662
2019-05-21T00:00:24.696Z,10.6561
2019-05-21T00:00:35.530Z,10.6561
2019-05-21T00:00:45.185Z,10.6360
2019-05-21T00:00:54.839Z,10.6561
2019-05-21T00:01:05.786Z,10.6561
2019-05-21T00:01:15.446Z,10.6360
2019-05-21T00:01:25.085Z,10.6360
2019-05-21T00:01:34.737Z,10.6360
2019-05-21T00:01:45.450Z,10.6360
2019-05-21T00:01:55.129Z,10.6259
2019-05-21T00:02:05.831Z,10.6360
2019-05-21T00:02:15.477Z,10.6259
2019-05-21T00:02:26.186Z,10.6360
2019-05-21T00:02:35.888Z,10.6561
2019-05-21T00:02:45.575Z,10.6561
2019-05-21T00:02:55.265Z,10.6360
2019-05-21T00:03:04.967Z,10.6360
2019-05-21T00:03:15.675Z,10.6360
2019-05-21T00:03:24.395Z,10.6360
2019-05-21T00:03:36.276Z,10.6259
2019-05-21T00:03:45.954Z,10.6058
2019-05-21T00:03:54.252Z,10.6058
2019-05-21T00:04:06.075Z,10.6058
2019-05-21T00:04:28.354Z,10.6360
2019-05-21T00:04:29.415Z,10.6058
2019-05-21T00:04:36.205Z,10.6259
2019-05-21T00:04:54.488Z,10.6259
2019-05-21T00:05:06.309Z,10.6259
2019-05-21T00:05:15.983Z,10.6360
2019-05-21T00:05:24.492Z,10.6259
2019-05-21T00:05:36.298Z,10.6360
2019-05-21T00:05:45.979Z,10.6561
2019-05-21T00:05:55.652Z,10.6360
2019-05-21T00:06:04.303Z,10.6259
2019-05-21T00:06:14.606Z,10.6259
2019-05-21T00:06:24.295Z,10.6259
2019-05-21T00:06:36.115Z,10.6259
2019-05-21T00:06:45.765Z,10.6259
2019-05-21T00:06:54.266Z,10.6259
2019-05-21T00:07:06.154Z,10.6259
2019-05-21T00:07:15.835Z,10.6058
2019-05-21T00:07:25.545Z,10.6259
2019-05-21T00:07:34.227Z,10.6259
2019-05-21T00:07:46.085Z,10.6058
2019-05-21T00:07:55.817Z,10.6259
2019-05-21T00:08:05.533Z,10.6259
2019-05-21T00:08:15.195Z,10.6259
2019-05-21T00:08:24.902Z,10.6259
2019-05-21T00:08:35.603Z,10.6360
2019-05-21T00:08:45.287Z,10.6259
2019-05-21T00:09:05.802Z,10.6360
2019-05-21T00:09:15.464Z,10.6259
2019-05-21T00:09:25.166Z,10.6058
2019-05-21T00:09:35.894Z,10.6259
2019-05-21T00:09:45.565Z,10.6259
2019-05-21T00:10:04.885Z,10.6259
2019-05-21T00:10:15.573Z,10.6360
2019-05-21T00:10:25.242Z,10.6360
2019-05-21T00:10:35.962Z,10.6259
2019-05-21T00:10:45.673Z,10.6259
2019-05-21T00:10:55.313Z,10.6360
2019-05-21T00:11:04.973Z,10.6259
2019-05-21T00:11:14.615Z,10.6058
2019-05-21T00:11:24.292Z,10.6259
2019-05-21T00:11:36.206Z,10.6259
2019-05-21T00:11:45.920Z,10.6058
2019-05-21T00:11:55.610Z,10.6259
2019-05-21T00:12:05.289Z,10.6259
2019-05-21T00:12:25.805Z,10.6058
2019-05-21T00:12:35.535Z,10.6058
2019-05-21T00:12:45.208Z,10.6058
2019-05-21T00:12:54.943Z,10.6259
2019-05-21T00:13:04.676Z,10.6259
2019-05-21T00:13:14.354Z,10.6058
2019-05-21T00:13:26.235Z,10.6058
2019-05-21T00:13:35.921Z,10.5957
2019-05-21T00:13:45.633Z,10.5957
2019-05-21T00:13:55.334Z,10.6058
2019-05-21T00:14:06.226Z,10.5957
2019-05-21T00:14:15.904Z,10.5856
2019-05-21T00:14:25.583Z,10.6058
2019-05-21T00:14:35.332Z,10.6058
2019-05-21T00:14:44.998Z,10.5957
2019-05-21T00:14:54.677Z,10.5957
2019-05-21T00:15:04.349Z,10.5856
2019-05-21T00:15:24.815Z,10.5856
2019-05-21T00:15:34.499Z,10.5957
2019-05-21T00:15:44.185Z,10.5957
2019-05-21T00:15:56.000Z,10.5957
2019-05-21T00:16:05.675Z,10.6058
2019-05-21T00:16:15.340Z,10.6259
2019-05-21T00:16:25.014Z,10.5957
2019-05-21T00:16:34.698Z,10.5957
2019-05-21T00:16:44.364Z,10.5957
2019-05-21T00:16:56.244Z,10.6058
2019-05-21T00:17:14.599Z,10.5957
2019-05-21T00:17:24.579Z,10.5957
2019-05-21T00:17:35.253Z,10.5957
2019-05-21T00:17:44.993Z,10.5957
2019-05-21T00:17:54.718Z,10.5957
2019-05-21T00:18:04.373Z,10.5957
2019-05-21T00:18:16.227Z,10.6058
2019-05-21T00:18:25.930Z,10.6058
2019-05-21T00:18:35.621Z,10.5957
2019-05-21T00:18:45.325Z,10.5957
2019-05-21T00:18:55.015Z,10.6058
2019-05-21T00:19:04.658Z,10.5957
2019-05-21T00:19:15.565Z,10.6058
2019-05-21T00:19:25.223Z,10.6058
2019-05-21T00:19:34.904Z,10.6058
2019-05-21T00:19:44.575Z,10.6058
2019-05-21T00:19:54.277Z,10.6058
2019-05-21T00:20:14.866Z,10.6259
2019-05-21T00:20:24.542Z,10.6259
2019-05-21T00:20:35.393Z,10.5856
2019-05-21T00:20:45.060Z,10.6259
2019-05-21T00:20:54.788Z,10.6259
2019-05-21T00:21:04.485Z,10.6259
2019-05-21T00:21:14.221Z,10.6259
2019-05-21T00:21:26.093Z,10.6259
2019-05-21T00:21:35.799Z,10.6360
2019-05-21T00:21:45.454Z,10.6360
2019-05-21T00:22:05.978Z,10.6259
2019-05-21T00:22:15.665Z,10.6360
2019-05-21T00:22:24.357Z,10.6259
2019-05-21T00:22:36.394Z,10.6360
2019-05-21T00:22:47.173Z,10.6259
2019-05-21T00:22:54.662Z,10.6360
2019-05-21T00:23:04.345Z,10.6360
2019-05-21T00:23:16.185Z,10.6360
2019-05-21T00:23:24.902Z,10.6259
2019-05-21T00:23:34.555Z,10.6360
2019-05-21T00:23:44.213Z,10.6360
2019-05-21T00:23:56.033Z,10.6360
2019-05-21T00:24:05.702Z,10.6259
2019-05-21T00:24:15.422Z,10.6259
2019-05-21T00:24:25.095Z,10.6360
2019-05-21T00:24:35.859Z,10.6259
2019-05-21T00:24:44.425Z,10.6058
2019-05-21T00:25:05.439Z,10.6360
2019-05-21T00:25:17.371Z,10.6259
2019-05-21T00:25:25.057Z,10.6058
2019-05-21T00:25:36.726Z,10.6259
2019-05-21T00:25:45.233Z,10.6259
2019-05-21T00:25:56.154Z,10.6259
2019-05-21T00:26:15.289Z,10.6259
2019-05-21T00:26:24.928Z,10.6259
2019-05-21T00:26:34.598Z,10.6259
2019-05-21T00:26:55.088Z,10.6058
2019-05-21T00:27:04.743Z,10.6058
2019-05-21T00:27:14.687Z,10.5957
2019-05-21T00:27:24.333Z,10.6058
2019-05-21T00:27:37.201Z,10.6058
2019-05-21T00:27:44.721Z,10.6058
2019-05-21T00:27:54.409Z,10.5957
2019-05-21T00:28:05.058Z,10.6058
2019-05-21T00:28:15.763Z,10.5453
2019-05-21T00:28:25.438Z,10.5957
2019-05-21T00:28:35.228Z,10.5957
2019-05-21T00:28:46.108Z,10.5957
2019-05-21T00:28:55.788Z,10.5957
2019-05-21T00:29:05.448Z,10.5957
2019-05-21T00:29:15.169Z,10.5957
2019-05-21T00:29:25.879Z,10.6058
2019-05-21T00:29:35.532Z,10.6058
2019-05-21T00:29:55.841Z,10.5957
2019-05-21T00:30:05.551Z,10.5856
2019-05-21T00:30:15.258Z,10.5957
2019-05-21T00:30:24.898Z,10.5856
2019-05-21T00:30:34.648Z,10.5957
2019-05-21T00:30:44.294Z,10.5957
2019-05-21T00:31:04.782Z,10.5957
2019-05-21T00:31:14.472Z,10.6058
2019-05-21T00:31:24.155Z,10.5957
2019-05-21T00:31:35.950Z,10.5957
2019-05-21T00:31:45.635Z,10.5957
2019-05-21T00:31:55.327Z,10.5957
2019-05-21T00:32:05.026Z,10.5856
2019-05-21T00:32:14.720Z,10.5554
2019-05-21T00:32:24.454Z,10.5856
2019-05-21T00:32:34.154Z,10.5856
2019-05-21T00:32:55.750Z,10.5856
2019-05-21T00:33:06.423Z,10.5554
2019-05-21T00:33:16.128Z,10.5856
2019-05-21T00:33:25.899Z,10.5554
2019-05-21T00:33:35.578Z,10.5856
2019-05-21T00:33:44.220Z,10.5856
2019-05-21T00:33:55.106Z,10.5856
2019-05-21T00:34:05.770Z,10.5554
2019-05-21T00:34:15.440Z,10.5554
2019-05-21T00:34:25.162Z,10.5856
2019-05-21T00:34:43.564Z,10.5453
2019-05-21T00:34:45.641Z,10.5554
2019-05-21T00:34:55.308Z,10.5856
2019-05-21T00:35:04.981Z,10.5554
2019-05-21T00:35:14.948Z,10.5856
2019-05-21T00:35:24.622Z,10.5856
2019-05-21T00:35:34.307Z,10.5856
2019-05-21T00:35:54.850Z,10.5856
2019-05-21T00:36:04.552Z,10.5856
2019-05-21T00:36:14.238Z,10.5554
2019-05-21T00:36:26.060Z,10.5856
2019-05-21T00:36:35.731Z,10.5856
2019-05-21T00:36:45.409Z,10.5856
2019-05-21T00:36:56.210Z,10.5856
2019-05-21T00:37:05.971Z,10.5856
2019-05-21T00:37:15.762Z,10.5856
2019-05-21T00:37:24.438Z,10.5856
2019-05-21T00:37:34.158Z,10.5856
2019-05-21T00:37:46.000Z,10.5856
2019-05-21T00:37:55.670Z,10.5957
2019-05-21T00:38:06.409Z,10.5957
2019-05-21T00:38:17.082Z,10.5957
2019-05-21T00:38:31.274Z,10.5957
2019-05-21T00:38:35.979Z,10.5957
2019-05-21T00:38:55.368Z,10.5957
2019-05-21T00:39:05.043Z,10.5957
2019-05-21T00:39:14.724Z,10.5957
2019-05-21T00:39:24.476Z,10.5957
2019-05-21T00:39:35.133Z,10.5957
2019-05-21T00:39:45.808Z,10.6058
2019-05-21T00:39:55.469Z,10.5856
2019-05-21T00:40:10.787Z,10.5957
2019-05-21T00:40:16.273Z,10.5957
2019-05-21T00:40:25.976Z,10.5957
2019-05-21T00:40:44.295Z,10.5856
2019-05-21T00:40:54.251Z,10.5856
2019-05-21T00:41:06.101Z,10.5856
2019-05-21T00:41:16.773Z,10.5957
2019-05-21T00:41:24.282Z,10.5856
2019-05-21T00:41:36.108Z,10.5856
2019-05-21T00:41:54.538Z,10.5554
2019-05-21T00:42:05.234Z,10.5856
2019-05-21T00:42:14.992Z,10.5856
2019-05-21T00:42:24.672Z,10.5856
2019-05-21T00:42:34.341Z,10.5856
2019-05-21T00:42:46.274Z,10.5856
2019-05-21T00:42:55.053Z,10.5856
2019-05-21T00:43:05.746Z,10.5856
2019-05-21T00:43:15.422Z,10.5856
2019-05-21T00:43:26.082Z,10.5554
2019-05-21T00:43:44.480Z,10.5554
2019-05-21T00:43:54.168Z,10.5554
2019-05-21T00:44:06.110Z,10.5856
2019-05-21T00:44:15.789Z,10.5453
2019-05-21T00:44:25.528Z,10.5856
2019-05-21T00:44:35.387Z,10.5554
2019-05-21T00:44:45.111Z,10.5554
2019-05-21T00:44:54.842Z,10.5856
2019-05-21T00:45:04.524Z,10.5554
2019-05-21T00:45:14.262Z,10.5856
2019-05-21T00:45:34.890Z,10.5957
2019-05-21T00:45:44.600Z,10.5554
2019-05-21T00:45:55.278Z,10.5856
2019-05-21T00:46:06.130Z,10.5856
2019-05-21T00:46:15.859Z,10.5957
2019-05-21T00:46:25.582Z,10.5856
2019-05-21T00:46:35.259Z,10.5453
2019-05-21T00:46:44.966Z,10.5453
2019-05-21T00:46:55.645Z,10.5554
2019-05-21T00:47:05.420Z,10.5554
2019-05-21T00:47:15.163Z,10.5554
2019-05-21T00:47:24.817Z,10.5554
2019-05-21T00:47:34.508Z,10.5554
2019-05-21T00:47:45.213Z,10.5453
2019-05-21T00:47:54.930Z,10.5554
2019-05-21T00:48:05.850Z,10.5252
2019-05-21T00:48:15.740Z,10.5554
2019-05-21T00:48:34.198Z,10.5453
2019-05-21T00:48:46.084Z,10.5453
2019-05-21T00:48:55.853Z,10.5554
2019-05-21T00:49:05.569Z,10.5252
2019-05-21T00:49:14.334Z,10.5554
2019-05-21T00:49:26.264Z,10.5554
2019-05-21T00:49:35.023Z,10.5252
2019-05-21T00:49:44.774Z,10.5252
2019-05-21T00:49:54.560Z,10.5252
2019-05-21T00:50:04.233Z,10.5252
2019-05-21T00:50:25.830Z,10.5252
2019-05-21T00:50:35.530Z,10.5252
2019-05-21T00:50:46.278Z,10.5151
2019-05-21T00:50:56.101Z,10.5252
2019-05-21T00:51:06.862Z,10.5252
2019-05-21T00:51:14.479Z,10.5252
2019-05-21T00:51:35.742Z,10.5453
2019-05-21T00:51:45.452Z,10.5453
2019-05-21T00:52:07.149Z,10.5252
2019-05-21T00:52:08.432Z,10.5252
2019-05-21T00:52:14.442Z,10.5453
2019-05-21T00:52:26.275Z,10.5252
2019-05-21T00:52:45.604Z,10.5252
2019-05-21T00:52:55.266Z,10.5252
2019-05-21T00:53:04.953Z,10.5151
2019-05-21T00:53:25.370Z,10.5151
2019-05-21T00:53:36.064Z,10.5151
2019-05-21T00:53:44.748Z,10.5252
2019-05-21T00:53:54.432Z,10.5051
2019-05-21T00:54:04.292Z,10.5252
2019-05-21T00:54:16.150Z,10.5252
2019-05-21T00:54:26.888Z,10.5453
2019-05-21T00:54:34.420Z,10.5151
2019-05-21T00:54:46.245Z,10.5151
2019-05-21T00:54:55.913Z,10.5151
2019-05-21T00:55:05.583Z,10.5151
2019-05-21T00:55:15.522Z,10.5051
2019-05-21T00:55:24.385Z,10.5151
2019-05-21T00:55:36.279Z,10.5051
2019-05-21T00:55:46.060Z,10.5051
2019-05-21T00:55:55.850Z,10.5151
2019-05-21T00:56:04.571Z,10.5051
2019-05-21T00:56:14.256Z,10.5051
2019-05-21T00:56:26.150Z,10.5051
2019-05-21T00:56:35.798Z,10.5051
2019-05-21T00:56:45.490Z,10.4849
2019-05-21T00:56:55.182Z,10.5051
2019-05-21T00:57:04.882Z,10.4849
2019-05-21T00:57:14.574Z,10.5051
2019-05-21T00:57:25.440Z,10.5252
2019-05-21T00:57:35.155Z,10.5151
2019-05-21T00:57:44.931Z,10.5151
2019-05-21T00:57:54.733Z,10.5151
2019-05-21T00:58:04.394Z,10.4849
2019-05-21T00:58:16.231Z,10.5151
2019-05-21T00:58:26.025Z,10.5051
2019-05-21T00:58:34.582Z,10.4849
2019-05-21T00:58:44.384Z,10.4849
2019-05-21T00:58:56.290Z,10.5151
2019-05-21T00:59:06.067Z,10.5051
2019-05-21T00:59:16.200Z,10.4849
2019-05-21T00:59:26.221Z,10.4849
2019-05-21T00:59:35.950Z,10.4749
2019-05-21T00:59:45.900Z,10.4849
2019-05-21T01:00:05.787Z,10.4849
2019-05-21T01:00:14.868Z,10.4849
2019-05-21T01:00:24.890Z,10.4749
2019-05-21T01:00:34.792Z,10.4849
2019-05-21T01:00:45.722Z,10.4849
2019-05-21T01:00:54.202Z,10.4749
2019-05-21T01:01:06.202Z,10.4749
2019-05-21T01:01:16.093Z,10.4547
2019-05-21T01:01:25.962Z,10.4749
2019-05-21T01:01:35.728Z,10.4547
2019-05-21T01:01:54.484Z,10.4547
2019-05-21T01:02:05.320Z,10.4749
2019-05-21T01:02:15.081Z,10.4749
2019-05-21T01:02:24.804Z,10.4849
2019-05-21T01:02:34.532Z,10.4749
2019-05-21T01:02:44.222Z,10.4749
2019-05-21T01:02:56.112Z,10.4749
2019-05-21T01:03:04.641Z,10.4547
2019-05-21T01:03:15.332Z,10.4547
2019-05-21T01:03:35.954Z,10.4547
2019-05-21T01:03:45.686Z,10.4749
2019-05-21T01:03:54.240Z,10.4749
2019-05-21T01:04:06.213Z,10.4749
2019-05-21T01:04:15.936Z,10.4547
2019-05-21T01:04:25.673Z,10.4547
2019-05-21T01:04:35.356Z,10.4547
2019-05-21T01:05:00.846Z,10.4749
2019-05-21T01:05:14.962Z,10.4547
2019-05-21T01:05:24.647Z,10.4547
2019-05-21T01:05:34.400Z,10.4749
2019-05-21T01:05:46.303Z,10.4547
2019-05-21T01:05:56.030Z,10.4547
2019-05-21T01:06:15.793Z,10.4547
2019-05-21T01:06:25.770Z,10.4547
2019-05-21T01:06:35.578Z,10.4547
2019-05-21T01:06:45.432Z,10.4547
2019-05-21T01:06:55.274Z,10.4446
2019-05-21T01:07:05.378Z,10.4446
2019-05-21T01:07:15.307Z,10.4547
2019-05-21T01:07:25.184Z,10.4547
2019-05-21T01:07:34.990Z,10.4547
2019-05-21T01:07:44.790Z,10.4547
2019-05-21T01:07:54.705Z,10.4446
2019-05-21T01:08:04.622Z,10.4446
2019-05-21T01:08:14.325Z,10.4547
2019-05-21T01:08:24.152Z,10.4446
2019-05-21T01:08:36.158Z,10.4446
2019-05-21T01:08:46.010Z,10.4144
2019-05-21T01:08:55.800Z,10.4547
2019-05-21T01:09:05.648Z,10.4446
2019-05-21T01:09:14.403Z,10.4446
2019-05-21T01:09:24.310Z,10.4446
2019-05-21T01:09:36.290Z,10.4446
2019-05-21T01:09:46.040Z,10.4446
2019-05-21T01:09:55.923Z,10.4245
2019-05-21T01:10:05.750Z,10.4245
2019-05-21T01:10:15.493Z,10.4144
2019-05-21T01:10:26.460Z,10.4144
2019-05-21T01:10:36.331Z,10.4144
2019-05-21T01:10:46.054Z,10.4144
2019-05-21T01:11:04.612Z,10.4044
2019-05-21T01:11:14.410Z,10.3641
2019-05-21T01:11:25.162Z,10.4044
2019-05-21T01:11:34.891Z,10.4245
2019-05-21T01:11:45.782Z,10.4144
2019-05-21T01:11:55.524Z,10.4144
2019-05-21T01:12:05.244Z,10.4144
2019-05-21T01:12:14.954Z,10.4044
2019-05-21T01:12:24.695Z,10.4044
2019-05-21T01:12:35.590Z,10.4044
2019-05-21T01:12:56.182Z,10.4044
2019-05-21T01:13:05.944Z,10.4044
2019-05-21T01:13:15.660Z,10.4044
2019-05-21T01:13:25.574Z,10.3842
2019-05-21T01:13:35.401Z,10.4044
2019-05-21T01:13:45.410Z,10.4044
2019-05-21T01:13:56.284Z,10.4044
2019-05-21T01:14:06.120Z,10.4044
2019-05-21T01:14:24.981Z,10.4144
2019-05-21T01:14:34.890Z,10.4044
2019-05-21T01:14:44.760Z,10.3842
2019-05-21T01:14:54.600Z,10.4044
2019-05-21T01:15:04.360Z,10.3842
2019-05-21T01:15:16.320Z,10.3842
2019-05-21T01:15:26.282Z,10.4044
2019-05-21T01:15:36.083Z,10.3842
2019-05-21T01:15:54.455Z,10.4044
2019-05-21T01:16:06.324Z,10.4044
2019-05-21T01:16:17.038Z,10.3842
2019-05-21T01:16:24.642Z,10.4044
2019-05-21T01:16:35.330Z,10.3842
2019-05-21T01:16:45.080Z,10.4044
2019-05-21T01:16:54.770Z,10.4044
2019-05-21T01:17:04.464Z,10.4044
2019-05-21T01:17:14.460Z,10.4044
2019-05-21T01:17:24.323Z,10.4044
2019-05-21T01:17:45.077Z,10.4044
2019-05-21T01:17:55.878Z,10.3842
2019-05-21T01:18:05.983Z,10.3842
2019-05-21T01:18:14.867Z,10.4144
2019-05-21T01:18:25.864Z,10.4044
2019-05-21T01:18:35.694Z,10.4245
2019-05-21T01:18:46.998Z,10.3842
2019-05-21T01:18:54.728Z,10.4044
2019-05-21T01:19:04.598Z,10.3842
2019-05-21T01:19:14.765Z,10.3842
2019-05-21T01:19:24.587Z,10.3842
2019-05-21T01:19:34.344Z,10.4044
2019-05-21T01:19:45.075Z,10.3842
2019-05-21T01:19:54.806Z,10.4044
2019-05-21T01:20:04.559Z,10.4044
2019-05-21T01:20:14.248Z,10.4044
2019-05-21T01:20:26.107Z,10.4044
2019-05-21T01:20:44.696Z,10.3842
2019-05-21T01:20:54.386Z,10.4044
2019-05-21T01:21:06.264Z,10.3842
2019-05-21T01:21:15.960Z,10.4044
2019-05-21T01:21:25.664Z,10.3842
2019-05-21T01:21:35.344Z,10.4144
2019-05-21T01:21:45.269Z,10.4044
2019-05-21T01:21:56.116Z,10.3842
2019-05-21T01:22:06.064Z,10.4044
2019-05-21T01:22:14.794Z,10.4044
2019-05-21T01:22:36.278Z,10.3842
2019-05-21T01:22:46.126Z,10.4144
2019-05-21T01:22:55.944Z,10.4044
2019-05-21T01:23:05.774Z,10.4044
2019-05-21T01:23:16.707Z,10.4044
2019-05-21T01:23:25.325Z,10.4044
2019-05-21T01:23:35.272Z,10.4044
2019-05-21T01:23:45.169Z,10.4044
2019-05-21T01:23:56.086Z,10.4044
2019-05-21T01:24:05.973Z,10.4144
2019-05-21T01:24:14.804Z,10.4144
2019-05-21T01:24:24.634Z,10.4144
2019-05-21T01:24:35.706Z,10.4044
2019-05-21T01:24:45.556Z,10.4144
2019-05-21T01:24:55.332Z,10.4144
2019-05-21T01:25:05.213Z,10.4044
2019-05-21T01:25:14.943Z,10.4044
2019-05-21T01:25:24.724Z,10.4044
2019-05-21T01:25:34.676Z,10.4044
2019-05-21T01:25:44.477Z,10.4044
2019-05-21T01:25:55.303Z,10.4044
2019-05-21T01:26:05.233Z,10.4144
2019-05-21T01:26:15.096Z,10.4044
2019-05-21T01:26:26.118Z,10.4144
2019-05-21T01:26:34.898Z,10.4044
2019-05-21T01:26:45.584Z,10.4044
2019-05-21T01:26:55.324Z,10.4144
2019-05-21T01:27:05.073Z,10.4044
2019-05-21T01:27:15.973Z,10.4044
2019-05-21T01:27:25.786Z,10.4144
2019-05-21T01:27:34.516Z,10.4044
2019-05-21T01:27:54.944Z,10.3842
2019-05-21T01:28:04.618Z,10.4044
2019-05-21T01:28:14.304Z,10.4044
2019-05-21T01:28:35.924Z,10.4044
2019-05-21T01:28:45.604Z,10.3842
2019-05-21T01:28:54.306Z,10.4044
2019-05-21T01:29:07.194Z,10.4044
2019-05-21T01:29:14.703Z,10.3842
2019-05-21T01:29:24.404Z,10.4044
2019-05-21T01:29:35.195Z,10.4044
2019-05-21T01:29:44.916Z,10.4044
2019-05-21T01:29:54.748Z,10.4044
2019-05-21T01:30:05.524Z,10.4044
2019-05-21T01:30:15.321Z,10.3641
2019-05-21T01:30:26.233Z,10.4044
2019-05-21T01:30:36.037Z,10.4144
2019-05-21T01:30:46.216Z,10.4044
2019-05-21T01:31:05.866Z,10.4044
2019-05-21T01:31:15.845Z,10.3339
2019-05-21T01:31:25.814Z,10.4044
2019-05-21T01:31:35.678Z,10.3842
2019-05-21T01:31:45.484Z,10.4144
2019-05-21T01:31:55.399Z,10.4044
2019-05-21T01:32:06.124Z,10.4144
2019-05-21T01:32:16.173Z,10.3842
2019-05-21T01:32:26.038Z,10.4144
2019-05-21T01:32:34.664Z,10.3842
2019-05-21T01:32:56.133Z,10.4144
2019-05-21T01:33:05.935Z,10.4044
2019-05-21T01:33:15.614Z,10.4044
2019-05-21T01:33:25.316Z,10.4044
2019-05-21T01:33:35.364Z,10.3641
2019-05-21T01:33:45.390Z,10.4044
2019-05-21T01:33:55.330Z,10.3842
2019-05-21T01:34:04.288Z,10.3842
2019-05-21T01:34:14.197Z,10.3842
2019-05-21T01:34:26.094Z,10.3641
2019-05-21T01:34:34.765Z,10.3842
2019-05-21T01:34:44.824Z,10.3842
2019-05-21T01:34:54.738Z,10.3842
2019-05-21T01:35:16.697Z,10.3842
2019-05-21T01:35:17.449Z,10.3842
2019-05-21T01:35:25.228Z,10.3842
2019-05-21T01:35:34.976Z,10.3842
2019-05-21T01:35:44.747Z,10.4044
2019-05-21T01:35:54.494Z,10.4044
2019-05-21T01:36:05.319Z,10.4044
2019-05-21T01:36:15.153Z,10.4044
2019-05-21T01:36:25.050Z,10.4044
2019-05-21T01:36:35.164Z,10.4044
2019-05-21T01:36:45.175Z,10.3842
2019-05-21T01:36:55.044Z,10.4044
2019-05-21T01:37:04.804Z,10.3842
2019-05-21T01:37:14.984Z,10.3842
2019-05-21T01:37:24.907Z,10.3842
2019-05-21T01:37:44.556Z,10.4044
2019-05-21T01:37:54.274Z,10.4044
2019-05-21T01:38:06.141Z,10.3842
2019-05-21T01:38:25.755Z,10.4144
2019-05-21T01:38:35.477Z,10.4044
2019-05-21T01:38:46.214Z,10.3842
2019-05-21T01:38:56.083Z,10.4044
2019-05-21T01:39:07.087Z,10.4044
2019-05-21T01:39:14.726Z,10.3641
2019-05-21T01:39:24.404Z,10.3842
2019-05-21T01:39:34.213Z,10.3842
2019-05-21T01:39:46.088Z,10.3842
2019-05-21T01:39:55.970Z,10.4044
2019-05-21T01:40:04.674Z,10.3641
2019-05-21T01:40:14.415Z,10.3842
2019-05-21T01:40:25.307Z,10.3842
2019-05-21T01:40:35.000Z,10.3842
2019-05-21T01:40:44.678Z,10.3641
2019-05-21T01:40:54.376Z,10.3641
2019-05-21T01:41:06.265Z,10.3641
2019-05-21T01:41:24.612Z,10.3641
2019-05-21T01:41:34.324Z,10.3842
2019-05-21T01:41:46.243Z,10.3842
2019-05-21T01:41:55.974Z,10.3641
2019-05-21T01:42:05.634Z,10.3439
2019-05-21T01:42:15.334Z,10.3439
2019-05-21T01:42:25.085Z,10.3641
2019-05-21T01:42:34.767Z,10.3641
2019-05-21T01:42:44.516Z,10.3641
2019-05-21T01:42:54.219Z,10.3439
2019-05-21T01:43:06.100Z,10.3439
2019-05-21T01:43:15.836Z,10.3439
2019-05-21T01:43:25.537Z,10.3339
2019-05-21T01:43:44.430Z,10.3439
2019-05-21T01:43:54.243Z,10.3439
2019-05-21T01:44:06.105Z,10.3439
2019-05-21T01:44:15.994Z,10.3439
2019-05-21T01:44:25.856Z,10.3439
2019-05-21T01:44:35.826Z,10.3439
2019-05-21T01:44:44.714Z,10.3439
2019-05-21T01:44:54.524Z,10.3439
2019-05-21T01:45:05.452Z,10.3339
2019-05-21T01:45:15.496Z,10.3439
2019-05-21T01:45:34.194Z,10.3238
2019-05-21T01:45:46.330Z,10.3036
2019-05-21T01:45:56.174Z,10.3339
2019-05-21T01:46:06.030Z,10.3339
2019-05-21T01:46:15.978Z,10.3339
2019-05-21T01:46:24.603Z,10.3641
2019-05-21T01:46:34.507Z,10.3339
2019-05-21T01:46:44.239Z,10.3339
2019-05-21T01:46:54.164Z,10.3439
2019-05-21T01:47:06.212Z,10.3641
2019-05-21T01:47:15.966Z,10.3439
2019-05-21T01:47:25.669Z,10.3439
2019-05-21T01:47:35.371Z,10.3439
2019-05-21T01:47:45.066Z,10.3339
2019-05-21T01:47:54.728Z,10.3439
2019-05-21T01:48:04.404Z,10.3439
2019-05-21T01:48:15.113Z,10.3339
2019-05-21T01:48:24.813Z,10.3439
2019-05-21T01:48:34.521Z,10.3439
2019-05-21T01:48:44.258Z,10.3439
2019-05-21T01:48:56.216Z,10.3439
2019-05-21T01:49:06.022Z,10.3339
2019-05-21T01:49:25.042Z,10.3339
2019-05-21T01:49:34.711Z,10.3238
2019-05-21T01:49:44.380Z,10.3339
2019-05-21T01:49:56.294Z,10.3339
2019-05-21T01:50:09.406Z,10.3339
2019-05-21T01:50:16.273Z,10.3339
2019-05-21T01:50:26.105Z,10.3339
2019-05-21T01:50:35.857Z,10.3339
2019-05-21T01:50:44.426Z,10.3238
2019-05-21T01:50:55.227Z,10.3238
2019-05-21T01:51:04.965Z,10.3339
2019-05-21T01:51:14.706Z,10.3238
2019-05-21T01:51:24.399Z,10.3339
2019-05-21T01:51:34.365Z,10.3339
2019-05-21T01:51:45.144Z,10.3238
2019-05-21T01:51:54.975Z,10.3339
2019-05-21T01:52:04.853Z,10.3339
2019-05-21T01:52:14.735Z,10.3339
2019-05-21T01:52:24.442Z,10.3339
2019-05-21T01:52:34.155Z,10.3339
2019-05-21T01:52:46.117Z,10.3339
2019-05-21T01:52:55.885Z,10.3238
2019-05-21T01:53:05.653Z,10.3339
2019-05-21T01:53:15.419Z,10.3238
2019-05-21T01:53:25.274Z,10.3036
2019-05-21T01:53:35.026Z,10.3238
2019-05-21T01:53:45.729Z,10.3339
2019-05-21T01:53:55.543Z,10.3238
2019-05-21T01:54:05.225Z,10.3238
2019-05-21T01:54:14.677Z,10.3238
2019-05-21T01:54:34.196Z,10.3238
2019-05-21T01:54:44.259Z,10.3238
2019-05-21T01:54:55.096Z,10.3238
2019-05-21T01:55:04.827Z,10.3339
2019-05-21T01:55:14.553Z,10.3238
2019-05-21T01:55:24.413Z,10.2936
2019-05-21T01:55:35.348Z,10.3238
2019-05-21T01:55:45.081Z,10.3036
2019-05-21T01:56:00.693Z,10.3238
2019-05-21T01:56:06.160Z,10.3238
2019-05-21T01:56:24.576Z,10.3036
2019-05-21T01:56:34.335Z,10.3238
2019-05-21T01:56:46.247Z,10.3036
2019-05-21T01:56:55.957Z,10.3036
2019-05-21T01:57:05.694Z,10.3238
2019-05-21T01:57:15.488Z,10.3238
2019-05-21T01:57:25.172Z,10.3238
2019-05-21T01:57:35.903Z,10.3238
2019-05-21T01:57:45.843Z,10.3339
2019-05-21T01:57:55.544Z,10.3238
2019-05-21T01:58:05.223Z,10.3036
2019-05-21T01:58:14.906Z,10.3036
2019-05-21T01:58:24.645Z,10.2734
2019-05-21T01:58:34.450Z,10.3339
2019-05-21T01:58:44.226Z,10.3036
2019-05-21T01:58:56.285Z,10.3238
2019-05-21T01:59:06.112Z,10.3339
2019-05-21T01:59:24.474Z,10.3238
2019-05-21T01:59:34.280Z,10.3036
2019-05-21T01:59:46.184Z,10.3238
2019-05-21T01:59:55.872Z,10.3238
2019-05-21T02:00:05.632Z,10.3036
2019-05-21T02:00:15.924Z,10.3036
2019-05-21T02:00:25.693Z,10.3036
2019-05-21T02:00:35.372Z,10.3036
2019-05-21T02:00:45.062Z,10.3238
2019-05-21T02:00:55.868Z,10.3036
2019-05-21T02:01:15.355Z,10.3036
2019-05-21T02:01:25.022Z,10.3036
2019-05-21T02:01:34.692Z,10.3238
2019-05-21T02:01:44.388Z,10.3036
2019-05-21T02:01:56.304Z,10.3036
2019-05-21T02:02:05.987Z,10.3238
2019-05-21T02:02:15.733Z,10.3036
2019-05-21T02:02:24.338Z,10.3238
2019-05-21T02:02:36.286Z,10.3238
2019-05-21T02:02:46.012Z,10.3036
2019-05-21T02:02:54.802Z,10.3238
2019-05-21T02:03:04.638Z,10.3036
2019-05-21T02:03:14.365Z,10.3036
2019-05-21T02:03:26.302Z,10.3238
2019-05-21T02:03:36.069Z,10.2936
2019-05-21T02:03:45.955Z,10.3238
2019-05-21T02:03:55.640Z,10.3238
2019-05-21T02:04:16.034Z,10.3036
2019-05-21T02:04:25.787Z,10.3036
2019-05-21T02:04:35.552Z,10.3238
2019-05-21T02:04:45.279Z,10.3036
2019-05-21T02:04:54.954Z,10.3036
2019-05-21T02:05:04.666Z,10.3036
2019-05-21T02:05:14.342Z,10.3036
2019-05-21T02:05:33.367Z,10.3036
2019-05-21T02:05:45.621Z,10.3238
2019-05-21T02:06:06.153Z,10.3238
2019-05-21T02:06:15.830Z,10.3238
2019-05-21T02:06:25.519Z,10.3238
2019-05-21T02:06:36.203Z,10.3238
2019-05-21T02:06:49.188Z,10.3238
2019-05-21T02:06:55.340Z,10.3641
2019-05-21T02:07:05.055Z,10.3238
2019-05-21T02:07:14.770Z,10.3238
2019-05-21T02:07:24.431Z,10.3238
2019-05-21T02:07:36.309Z,10.3238
2019-05-21T02:07:45.965Z,10.3238
2019-05-21T02:07:55.759Z,10.3036
2019-05-21T02:08:05.435Z,10.3238
2019-05-21T02:08:15.202Z,10.3238
2019-05-21T02:08:24.997Z,10.3036
2019-05-21T02:08:34.791Z,10.3339
2019-05-21T02:08:44.460Z,10.3238
2019-05-21T02:08:54.319Z,10.3238
2019-05-21T02:09:06.241Z,10.3238
2019-05-21T02:09:16.010Z,10.3238
2019-05-21T02:09:25.751Z,10.3238
2019-05-21T02:09:35.768Z,10.3339
2019-05-21T02:09:45.521Z,10.3238
2019-05-21T02:09:55.370Z,10.3439
2019-05-21T02:10:05.151Z,10.3339